Time;durP1;ratioP1;P1;durP2;ratioP2;P2;SDS_P1;SDS_P2;PMS_P1;PMS_P2;Temp;Humidity;BMP_temperature;BMP_pressure;BME280_temperature;BME280_humidity;BME280_pressure;Samples;Min_cycle;Max_cycle;Signal;HPM_P1;HPM_P2
2023/01/05 00:00:54;;;;;;;4.57;2.23;;;10.30;99.90;;;;;;5055789;28;20455;-69
2023/01/05 00:03:21;;;;;;;6.47;2.40;;;10.20;99.90;;;;;;5055309;28;20776;-69
2023/01/05 00:05:48;;;;;;;12.40;3.10;;;10.20;99.90;;;;;;5058101;28;20455;-68
2023/01/05 00:08:15;;;;;;;8.13;2.20;;;10.30;99.90;;;;;;5060394;28;20955;-68
2023/01/05 00:24:27;;;;;;;7.80;1.80;;;10.30;99.90;;;;;;5060636;28;20423;-68
2023/01/05 00:26:54;;;;;;;7.90;2.07;;;10.30;99.90;;;;;;5060477;28;20537;-68
2023/01/05 00:29:22;;;;;;;4.87;2.00;;;10.30;99.90;;;;;;5061551;28;20555;-69
2023/01/05 00:31:49;;;;;;;5.97;1.57;;;10.30;99.90;;;;;;5060730;28;20495;-69
2023/01/05 00:34:16;;;;;;;5.03;1.97;;;10.40;99.90;;;;;;5059443;28;20455;-68
2023/01/05 00:36:43;;;;;;;3.33;1.90;;;10.40;99.90;;;;;;5059677;28;20549;-69
2023/01/05 00:39:10;;;;;;;6.27;1.70;;;10.40;99.90;;;;;;5059921;28;20537;-68
2023/01/05 00:41:36;;;;;;;6.37;2.70;;;10.40;99.90;;;;;;5059452;28;20523;-68
2023/01/05 00:44:03;;;;;;;5.70;1.90;;;10.50;99.90;;;;;;5060421;28;20595;-69
2023/01/05 00:46:32;;;;;;;3.70;1.47;;;10.50;99.90;;;;;;5059532;28;20455;-68
2023/01/05 00:48:59;;;;;;;5.40;1.73;;;10.50;99.90;;;;;;5059161;28;20479;-69
2023/01/05 00:51:25;;;;;;;7.57;2.37;;;10.50;99.90;;;;;;5059655;28;20497;-68
2023/01/05 00:53:52;;;;;;;7.27;1.97;;;10.50;99.90;;;;;;5059623;28;20540;-68
2023/01/05 00:56:19;;;;;;;4.90;2.30;;;10.50;99.90;;;;;;5059672;28;20955;-67
2023/01/05 00:58:46;;;;;;;7.43;2.10;;;10.50;99.90;;;;;;5059134;28;20461;-67
2023/01/05 01:01:13;;;;;;;6.03;1.93;;;10.50;99.90;;;;;;5059394;28;20558;-69
2023/01/05 01:03:41;;;;;;;6.50;2.53;;;10.60;99.90;;;;;;5058971;28;20796;-69
2023/01/05 01:06:08;;;;;;;7.90;2.30;;;10.60;99.90;;;;;;5059889;28;20798;-70
2023/01/05 01:08:35;;;;;;;3.50;2.00;;;10.50;99.90;;;;;;5058357;28;20573;-68
2023/01/05 01:11:05;;;;;;;9.30;2.10;;;10.50;99.90;;;;;;5058341;28;20546;-69
2023/01/05 01:13:32;;;;;;;7.97;2.27;;;10.40;99.90;;;;;;5058616;28;20463;-68
2023/01/05 01:16:06;;;;;;;9.67;3.07;;;10.40;99.90;;;;;;5059220;28;20469;-69
2023/01/05 01:18:33;;;;;;;6.60;2.37;;;10.50;99.90;;;;;;5059063;28;20870;-69
2023/01/05 01:21:01;;;;;;;8.97;2.20;;;10.40;99.90;;;;;;5059367;28;20841;-69
2023/01/05 01:23:28;;;;;;;6.30;2.23;;;10.50;99.90;;;;;;5057550;28;20521;-69
2023/01/05 01:25:55;;;;;;;4.47;2.60;;;10.50;99.90;;;;;;5058128;28;21004;-68
2023/01/05 01:28:22;;;;;;;7.13;2.00;;;10.50;99.90;;;;;;5057856;28;20955;-67
2023/01/05 01:30:50;;;;;;;6.23;1.93;;;10.50;99.90;;;;;;5058478;28;20467;-69
2023/01/05 01:33:17;;;;;;;5.60;2.13;;;10.50;99.90;;;;;;5058085;28;20459;-68
2023/01/05 01:35:44;;;;;;;12.17;2.17;;;10.50;99.90;;;;;;5057277;28;20459;-67
2023/01/05 01:38:12;;;;;;;7.37;2.37;;;10.50;99.90;;;;;;5057901;28;20840;-70
2023/01/05 01:40:41;;;;;;;9.70;2.10;;;10.50;99.90;;;;;;5058157;28;20502;-68
2023/01/05 01:43:12;;;;;;;7.03;1.60;;;10.50;99.90;;;;;;5057787;28;20463;-69
2023/01/05 01:45:39;;;;;;;6.70;1.83;;;10.50;99.90;;;;;;5058357;28;20451;-67
2023/01/05 01:48:09;;;;;;;8.17;2.17;;;10.50;99.90;;;;;;5057711;28;20570;-68
2023/01/05 01:50:40;;;;;;;4.93;1.80;;;10.50;99.90;;;;;;5058336;28;20463;-68
2023/01/05 01:53:11;;;;;;;7.43;1.90;;;10.40;99.90;;;;;;5057265;28;20439;-71
2023/01/05 01:55:41;;;;;;;12.03;1.87;;;10.40;99.90;;;;;;5057558;28;20445;-70
2023/01/05 01:58:13;;;;;;;7.40;2.37;;;10.40;99.90;;;;;;5057584;28;20461;-69
2023/01/05 02:00:41;;;;;;;6.50;1.90;;;10.40;99.90;;;;;;5059292;28;20440;-68
2023/01/05 02:03:08;;;;;;;6.43;1.70;;;10.40;99.90;;;;;;5058069;28;20516;-69
2023/01/05 02:05:36;;;;;;;4.60;2.10;;;10.50;99.90;;;;;;5058163;28;20796;-68
2023/01/05 02:08:04;;;;;;;11.13;2.07;;;10.50;99.90;;;;;;5057688;28;20974;-69
2023/01/05 02:10:55;;;;;;;5.23;2.20;;;10.50;99.90;;;;;;5057555;28;20455;-69
2023/01/05 02:13:37;;;;;;;8.17;1.87;;;10.50;99.90;;;;;;5057988;28;20526;-69
2023/01/05 02:16:13;;;;;;;4.53;1.60;;;10.60;99.90;;;;;;5058067;28;20546;-70
2023/01/05 02:19:06;;;;;;;8.33;1.77;;;10.60;99.90;;;;;;5057552;28;20443;-68
2023/01/05 02:21:40;;;;;;;4.93;1.73;;;10.60;99.90;;;;;;5057850;28;20848;-68
2023/01/05 02:24:38;;;;;;;9.60;2.10;;;10.60;99.90;;;;;;5056750;28;20443;-70
2023/01/05 02:27:45;;;;;;;4.57;1.80;;;10.60;99.90;;;;;;5058378;28;20523;-69
2023/01/05 02:30:47;;;;;;;5.00;2.23;;;10.60;99.90;;;;;;5057042;28;20527;-70
2023/01/05 02:33:27;;;;;;;5.53;1.73;;;10.60;99.90;;;;;;5056964;28;20522;-69
2023/01/05 02:36:02;;;;;;;5.83;1.37;;;10.60;99.90;;;;;;5056401;28;20899;-68
2023/01/05 02:38:34;;;;;;;9.33;1.80;;;10.60;99.90;;;;;;5056714;28;20435;-69
2023/01/05 02:41:07;;;;;;;6.60;2.07;;;10.60;99.90;;;;;;5056678;28;20442;-68
2023/01/05 02:43:34;;;;;;;7.47;2.27;;;10.60;99.90;;;;;;5056754;28;20450;-69
2023/01/05 02:46:01;;;;;;;8.00;2.17;;;10.60;99.90;;;;;;5057152;28;20451;-69
2023/01/05 02:48:29;;;;;;;4.83;1.80;;;10.60;99.90;;;;;;5056437;28;20507;-69
2023/01/05 02:51:00;;;;;;;3.03;1.70;;;10.60;99.90;;;;;;5057092;28;20459;-69
2023/01/05 02:53:31;;;;;;;6.47;1.90;;;10.60;99.90;;;;;;5056516;28;20486;-68
2023/01/05 02:56:03;;;;;;;6.83;2.03;;;10.60;99.90;;;;;;5056883;28;20774;-68
2023/01/05 02:58:33;;;;;;;12.33;1.80;;;10.60;99.90;;;;;;5056541;28;20519;-68
2023/01/05 03:01:03;;;;;;;6.57;2.30;;;10.60;99.90;;;;;;5056737;28;20870;-69
2023/01/05 03:03:36;;;;;;;7.33;1.60;;;10.60;99.90;;;;;;5056595;28;20622;-69
2023/01/05 03:06:08;;;;;;;5.07;1.70;;;10.60;99.90;;;;;;5057303;28;20467;-68
2023/01/05 03:08:39;;;;;;;8.97;2.60;;;10.60;99.90;;;;;;5056225;28;20536;-69
2023/01/05 03:13:56;;;;;;;4.87;2.13;;;10.50;99.90;;;;;;5055948;28;20753;-68
2023/01/05 03:16:28;;;;;;;8.80;2.30;;;10.50;99.90;;;;;;5056957;28;20498;-69
2023/01/05 03:35:40;;;;;;;3.63;1.30;;;10.60;99.90;;;;;;5056757;28;20426;-68
2023/01/05 03:38:14;;;;;;;8.07;2.10;;;10.60;99.90;;;;;;5055624;28;20453;-69
2023/01/05 03:40:42;;;;;;;8.33;1.80;;;10.60;99.90;;;;;;5054948;28;20834;-68
2023/01/05 03:43:10;;;;;;;7.10;1.77;;;10.50;99.90;;;;;;5057073;28;20505;-69
2023/01/05 03:45:42;;;;;;;6.63;1.80;;;10.30;99.90;;;;;;5058605;28;20494;-68
2023/01/05 03:48:08;;;;;;;3.50;1.47;;;10.10;99.90;;;;;;5056797;28;20899;-68
2023/01/05 03:50:37;;;;;;;6.07;1.80;;;10.00;99.90;;;;;;5057130;28;20471;-69
2023/01/05 03:53:04;;;;;;;4.80;1.33;;;9.90;99.90;;;;;;5056619;28;20469;-69
2023/01/05 03:55:31;;;;;;;4.20;1.57;;;9.80;99.90;;;;;;5057340;28;20459;-69
2023/01/05 03:57:58;;;;;;;6.83;2.17;;;9.70;99.90;;;;;;5057722;28;20861;-68
2023/01/05 04:00:25;;;;;;;8.87;1.87;;;9.60;99.90;;;;;;5057476;28;20469;-68
2023/01/05 04:02:52;;;;;;;7.40;1.83;;;9.50;99.90;;;;;;5057865;28;20469;-69
2023/01/05 04:05:19;;;;;;;6.00;1.83;;;9.50;99.90;;;;;;5057983;28;20508;-69
2023/01/05 04:07:48;;;;;;;6.70;1.87;;;9.40;99.90;;;;;;5057182;28;20499;-69
2023/01/05 04:10:15;;;;;;;5.73;1.60;;;9.40;99.90;;;;;;5058204;28;20483;-68
2023/01/05 04:12:41;;;;;;;7.00;1.60;;;9.40;99.90;;;;;;5060933;28;20546;-68
2023/01/05 04:15:09;;;;;;;8.37;2.30;;;9.30;99.90;;;;;;5062225;28;20563;-68
2023/01/05 04:17:36;;;;;;;8.30;1.50;;;9.30;99.90;;;;;;5062308;28;20550;-68
2023/01/05 04:20:04;;;;;;;5.43;2.30;;;9.40;99.90;;;;;;5061001;28;20483;-67
2023/01/05 04:22:31;;;;;;;4.60;1.83;;;9.30;99.90;;;;;;5059874;28;20483;-68
2023/01/05 04:24:59;;;;;;;7.10;2.10;;;9.40;99.90;;;;;;5057949;28;20554;-67
2023/01/05 04:27:26;;;;;;;11.13;1.90;;;9.40;99.90;;;;;;5058357;28;20498;-68
2023/01/05 04:29:53;;;;;;;6.23;2.13;;;9.30;99.90;;;;;;5058285;28;20838;-68
2023/01/05 04:32:20;;;;;;;8.80;2.20;;;9.30;99.90;;;;;;5057264;28;20506;-68
2023/01/05 04:34:47;;;;;;;4.70;1.60;;;9.40;99.90;;;;;;5058309;28;20526;-68
2023/01/05 04:37:14;;;;;;;4.27;1.57;;;9.40;99.90;;;;;;5058048;28;20946;-67
2023/01/05 04:39:41;;;;;;;7.17;1.60;;;9.40;99.90;;;;;;5059679;28;20455;-68
2023/01/05 04:42:09;;;;;;;5.47;1.83;;;9.30;99.90;;;;;;5057803;28;20490;-68
2023/01/05 04:44:36;;;;;;;3.73;1.53;;;9.40;99.90;;;;;;5057774;28;20487;-68
2023/01/05 04:47:02;;;;;;;5.27;2.37;;;9.30;99.90;;;;;;5059174;28;20550;-68
2023/01/05 04:49:29;;;;;;;4.00;1.60;;;9.30;99.90;;;;;;5060161;28;20578;-69
2023/01/05 04:51:56;;;;;;;3.53;1.40;;;9.30;99.90;;;;;;5061903;28;20939;-68
2023/01/05 04:54:23;;;;;;;2.63;1.53;;;9.30;99.90;;;;;;5063942;28;20522;-68
2023/01/05 04:56:50;;;;;;;8.40;1.50;;;9.30;99.90;;;;;;5064605;28;20549;-68
2023/01/05 04:59:18;;;;;;;18.50;2.10;;;9.20;99.90;;;;;;5062810;28;20478;-69
2023/01/05 05:01:45;;;;;;;4.90;1.50;;;9.30;99.90;;;;;;5061819;28;20526;-69
2023/01/05 05:04:12;;;;;;;5.50;1.90;;;9.20;99.90;;;;;;5062565;28;20491;-69
2023/01/05 05:06:39;;;;;;;2.37;1.20;;;9.20;99.90;;;;;;5062927;28;20969;-68
2023/01/05 05:09:06;;;;;;;4.30;1.50;;;9.30;99.90;;;;;;5059429;28;20551;-68
2023/01/05 05:11:32;;;;;;;4.67;1.90;;;9.30;99.90;;;;;;5059049;28;20461;-68
2023/01/05 05:13:59;;;;;;;8.30;2.13;;;9.30;99.90;;;;;;5058986;28;20465;-68
2023/01/05 05:16:27;;;;;;;2.93;1.60;;;9.20;99.90;;;;;;5058774;28;20486;-69
2023/01/05 05:18:54;;;;;;;3.50;1.47;;;9.30;99.90;;;;;;5058856;28;20461;-67
2023/01/05 05:21:21;;;;;;;3.97;2.03;;;9.30;99.90;;;;;;5058491;28;20553;-68
2023/01/05 05:23:48;;;;;;;2.53;1.50;;;9.30;99.90;;;;;;5058868;28;20475;-68
2023/01/05 05:26:15;;;;;;;4.47;1.87;;;9.30;99.90;;;;;;5058335;28;20534;-69
2023/01/05 05:28:42;;;;;;;2.77;1.40;;;9.30;99.90;;;;;;5058472;28;20462;-67
2023/01/05 05:31:09;;;;;;;5.23;1.50;;;9.30;99.90;;;;;;5058302;28;20796;-67
2023/01/05 05:33:37;;;;;;;3.10;1.83;;;9.30;99.90;;;;;;5058597;28;20451;-69
2023/01/05 05:36:05;;;;;;;3.33;1.60;;;9.30;99.90;;;;;;5058938;28;20463;-68
2023/01/05 05:38:32;;;;;;;6.00;1.60;;;9.20;99.90;;;;;;5058285;28;20541;-67
2023/01/05 05:40:58;;;;;;;3.30;2.10;;;9.30;99.90;;;;;;5058640;28;20466;-68
2023/01/05 05:43:28;;;;;;;3.23;2.00;;;9.30;99.90;;;;;;5059986;28;20483;-68
2023/01/05 05:45:55;;;;;;;5.10;1.97;;;9.20;99.90;;;;;;5061055;28;20554;-69
2023/01/05 05:48:21;;;;;;;8.57;1.73;;;9.30;99.90;;;;;;5062326;28;20451;-69
2023/01/05 05:50:50;;;;;;;9.90;2.40;;;9.20;99.90;;;;;;5061319;28;20543;-69
2023/01/05 05:53:16;;;;;;;4.67;2.23;;;9.30;99.90;;;;;;5061747;28;20459;-68
2023/01/05 05:55:47;;;;;;;6.80;2.33;;;9.30;99.90;;;;;;5062259;28;20822;-69
2023/01/05 05:58:14;;;;;;;6.50;1.87;;;9.20;99.90;;;;;;5060686;28;20458;-69
2023/01/05 06:00:41;;;;;;;6.00;2.00;;;9.20;99.90;;;;;;5057732;28;20542;-69
2023/01/05 06:03:07;;;;;;;6.33;1.97;;;9.20;99.90;;;;;;5057195;28;20451;-68
2023/01/05 06:05:34;;;;;;;7.60;2.17;;;9.20;99.90;;;;;;5057374;28;20462;-68
2023/01/05 06:08:03;;;;;;;2.87;1.33;;;9.20;99.90;;;;;;5057735;28;20546;-68
2023/01/05 06:10:29;;;;;;;20.43;2.90;;;9.00;99.90;;;;;;5058096;28;21042;-69
2023/01/05 06:12:57;;;;;;;2.50;1.30;;;9.00;99.90;;;;;;5057395;28;20944;-69
2023/01/05 06:15:24;;;;;;;3.43;1.30;;;9.00;99.90;;;;;;5057015;28;20958;-69
2023/01/05 06:17:51;;;;;;;1.93;1.00;;;9.00;99.90;;;;;;5056917;28;20950;-69
2023/01/05 06:20:19;;;;;;;2.07;1.07;;;8.90;99.90;;;;;;5056872;28;20868;-67
2023/01/05 06:22:46;;;;;;;5.03;1.33;;;8.90;99.90;;;;;;5057356;28;20850;-69
2023/01/05 06:25:14;;;;;;;3.10;1.20;;;8.90;99.90;;;;;;5059964;28;20792;-69
2023/01/05 06:27:41;;;;;;;1.93;1.10;;;8.80;99.90;;;;;;5059599;28;20815;-70
2023/01/05 06:30:09;;;;;;;2.10;1.20;;;8.80;99.90;;;;;;5059119;28;20483;-69
2023/01/05 06:32:36;;;;;;;1.63;1.00;;;8.80;99.90;;;;;;5058676;28;20558;-69
2023/01/05 06:35:03;;;;;;;2.77;1.17;;;8.80;99.90;;;;;;5060359;28;20454;-69
2023/01/05 06:37:29;;;;;;;6.40;1.30;;;8.70;99.90;;;;;;5060458;28;20459;-69
2023/01/05 06:39:56;;;;;;;2.60;1.00;;;8.70;99.90;;;;;;5059254;28;20458;-68
2023/01/05 06:42:24;;;;;;;2.40;1.00;;;8.70;99.90;;;;;;5060549;28;20451;-68
2023/01/05 06:44:51;;;;;;;2.60;1.10;;;8.70;99.90;;;;;;5060559;28;20791;-69
2023/01/05 06:47:19;;;;;;;2.73;1.23;;;8.70;99.90;;;;;;5059917;28;20599;-69
2023/01/05 06:49:45;;;;;;;1.73;0.90;;;8.70;99.90;;;;;;5059361;28;20750;-70
2023/01/05 06:52:12;;;;;;;1.50;0.90;;;8.80;99.90;;;;;;5060781;28;20896;-69
2023/01/05 06:54:39;;;;;;;3.00;1.17;;;8.80;99.90;;;;;;5060144;28;20466;-71
2023/01/05 06:57:06;;;;;;;2.93;1.07;;;8.80;99.90;;;;;;5060560;28;20623;-68
2023/01/05 06:59:35;;;;;;;1.40;0.70;;;8.90;99.90;;;;;;5060744;28;20614;-69
2023/01/05 07:02:02;;;;;;;1.80;1.03;;;8.90;99.90;;;;;;5061277;28;20461;-69
2023/01/05 07:04:28;;;;;;;6.13;1.30;;;8.90;99.90;;;;;;5059029;28;20481;-69
2023/01/05 07:06:55;;;;;;;3.43;1.43;;;8.90;99.90;;;;;;5058830;28;20520;-68
2023/01/05 07:09:22;;;;;;;1.60;0.80;;;9.00;99.90;;;;;;5059297;28;20483;-69
2023/01/05 07:11:49;;;;;;;5.17;1.10;;;9.00;99.90;;;;;;5058403;28;20455;-68
2023/01/05 07:14:16;;;;;;;1.87;1.00;;;9.00;99.90;;;;;;5057883;28;20463;-68
2023/01/05 07:16:44;;;;;;;1.40;0.80;;;9.00;99.90;;;;;;5059431;28;20444;-68
2023/01/05 07:19:11;;;;;;;2.83;1.50;;;9.00;99.90;;;;;;5059238;28;20546;-68
2023/01/05 07:21:38;;;;;;;1.90;0.90;;;9.00;99.90;;;;;;5059767;28;20590;-69
2023/01/05 07:24:05;;;;;;;2.60;1.00;;;9.00;99.90;;;;;;5059609;28;20471;-69
2023/01/05 07:26:32;;;;;;;2.30;1.00;;;9.00;99.90;;;;;;5058744;28;20545;-69
2023/01/05 07:28:59;;;;;;;1.60;0.90;;;9.00;99.90;;;;;;5058258;28;20443;-69
2023/01/05 07:31:26;;;;;;;1.10;0.80;;;9.10;99.90;;;;;;5058103;28;20565;-69
2023/01/05 07:33:54;;;;;;;1.50;0.80;;;9.10;99.90;;;;;;5057768;28;20542;-70
2023/01/05 07:36:22;;;;;;;1.47;0.70;;;9.00;99.90;;;;;;5057788;28;20498;-69
2023/01/05 07:38:49;;;;;;;3.20;0.83;;;9.00;99.90;;;;;;5057378;28;20459;-68
2023/01/05 07:41:16;;;;;;;2.20;0.90;;;9.00;99.90;;;;;;5057423;28;20542;-68
2023/01/05 07:43:43;;;;;;;2.43;0.80;;;9.00;99.90;;;;;;5057759;28;20810;-69
2023/01/05 07:46:10;;;;;;;1.77;1.00;;;9.00;99.90;;;;;;5057830;28;20451;-69
2023/01/05 07:48:40;;;;;;;2.77;0.90;;;9.00;99.90;;;;;;5056900;28;20472;-68
2023/01/05 07:51:09;;;;;;;1.10;0.70;;;9.00;99.90;;;;;;5056630;28;20475;-68
2023/01/05 07:53:37;;;;;;;2.20;0.90;;;9.00;99.90;;;;;;5056982;28;20930;-69
2023/01/05 07:56:06;;;;;;;1.80;1.00;;;9.00;99.90;;;;;;5055440;28;20477;-69
2023/01/05 07:58:33;;;;;;;2.87;0.70;;;8.90;99.90;;;;;;5056422;28;20466;-69
2023/01/05 08:01:04;;;;;;;1.33;0.70;;;8.90;99.90;;;;;;5056834;28;20534;-69
2023/01/05 08:03:31;;;;;;;1.70;0.70;;;8.90;99.90;;;;;;5055367;28;20474;-71
2023/01/05 08:05:58;;;;;;;1.77;0.60;;;8.90;99.90;;;;;;5055530;28;20469;-69
2023/01/05 08:08:26;;;;;;;5.00;0.80;;;8.90;99.90;;;;;;5055822;28;20813;-69
2023/01/05 08:10:52;;;;;;;1.73;0.80;;;8.90;99.90;;;;;;5056220;28;20498;-68
2023/01/05 08:16:03;;;;;;;1.10;0.60;;;9.00;99.90;;;;;;5056231;28;20636;-69
2023/01/05 08:18:30;;;;;;;1.60;0.70;;;9.00;99.90;;;;;;5056326;28;20827;-69
2023/01/05 08:20:59;;;;;;;1.30;0.70;;;9.00;99.90;;;;;;5056988;28;20527;-69
2023/01/05 08:23:28;;;;;;;2.03;0.67;;;9.00;99.90;;;;;;5057012;28;20554;-70
2023/01/05 08:25:55;;;;;;;1.00;0.60;;;9.00;99.90;;;;;;5059422;28;20455;-69
2023/01/05 08:28:23;;;;;;;1.77;0.73;;;9.00;99.90;;;;;;5060842;28;20546;-69
2023/01/05 08:30:49;;;;;;;1.73;0.90;;;9.00;99.90;;;;;;5062678;28;20483;-69
2023/01/05 08:33:16;;;;;;;1.40;0.90;;;9.00;99.90;;;;;;5060699;28;20971;-69
2023/01/05 08:35:44;;;;;;;2.23;1.23;;;9.00;99.90;;;;;;5059902;28;20491;-69
2023/01/05 08:38:11;;;;;;;1.10;0.70;;;8.90;99.90;;;;;;5060315;28;20517;-69
2023/01/05 08:40:39;;;;;;;1.77;0.90;;;8.90;99.90;;;;;;5060217;28;20538;-70
2023/01/05 08:43:06;;;;;;;2.17;1.43;;;8.90;99.90;;;;;;5060451;28;20915;-69
2023/01/05 08:45:33;;;;;;;1.40;0.70;;;8.80;99.90;;;;;;5059764;28;20845;-68
2023/01/05 08:48:01;;;;;;;1.20;0.60;;;8.80;99.90;;;;;;5059415;28;20551;-70
2023/01/05 08:50:29;;;;;;;1.40;0.77;;;8.80;99.90;;;;;;5060002;28;20566;-70
2023/01/05 08:52:56;;;;;;;1.10;0.67;;;8.80;99.90;;;;;;5059528;28;20459;-70
2023/01/05 08:55:23;;;;;;;1.60;0.70;;;8.90;99.90;;;;;;5059605;28;20469;-69
2023/01/05 08:57:51;;;;;;;3.77;1.00;;;8.90;99.90;;;;;;5060487;28;20450;-70
2023/01/05 09:00:20;;;;;;;1.77;0.80;;;8.90;99.90;;;;;;5060122;28;20474;-70
2023/01/05 09:02:47;;;;;;;2.00;0.80;;;8.90;99.90;;;;;;5060057;28;20920;-70
2023/01/05 09:05:14;;;;;;;1.50;0.67;;;8.90;99.90;;;;;;5060437;28;20537;-70
2023/01/05 09:07:41;;;;;;;1.40;0.90;;;8.80;99.90;;;;;;5060515;28;20542;-70
2023/01/05 09:10:09;;;;;;;2.03;0.90;;;8.80;99.90;;;;;;5060687;28;20558;-68
2023/01/05 09:12:36;;;;;;;2.30;0.93;;;8.80;99.90;;;;;;5059775;28;20451;-69
2023/01/05 09:15:06;;;;;;;3.10;0.80;;;8.80;99.90;;;;;;5059218;28;20451;-70
2023/01/05 09:17:34;;;;;;;3.30;0.70;;;8.80;99.90;;;;;;5059776;28;20462;-70
2023/01/05 09:20:02;;;;;;;2.07;1.03;;;8.80;99.90;;;;;;5059883;28;20455;-70
2023/01/05 09:22:30;;;;;;;1.30;0.80;;;8.80;99.90;;;;;;5059345;28;20482;-70
2023/01/05 09:24:57;;;;;;;2.03;0.80;;;8.80;99.90;;;;;;5060137;28;20458;-69
2023/01/05 09:27:24;;;;;;;1.60;0.90;;;8.80;99.90;;;;;;5061149;28;21103;-70
2023/01/05 09:29:50;;;;;;;2.23;0.80;;;8.80;99.90;;;;;;5059948;28;20947;-69
2023/01/05 09:32:19;;;;;;;1.83;0.80;;;8.80;99.90;;;;;;5059818;28;20859;-70
2023/01/05 09:34:45;;;;;;;1.90;0.80;;;8.80;99.90;;;;;;5059834;28;20593;-70
2023/01/05 09:37:12;;;;;;;4.53;0.80;;;8.80;99.90;;;;;;5057189;28;20451;-69
2023/01/05 09:39:39;;;;;;;3.60;1.10;;;8.80;99.90;;;;;;5058808;28;20459;-70
2023/01/05 09:42:10;;;;;;;2.07;0.90;;;8.90;99.90;;;;;;5058839;28;20550;-69
2023/01/05 09:44:41;;;;;;;2.70;0.80;;;8.90;99.90;;;;;;5059086;28;20876;-69
2023/01/05 09:47:15;;;;;;;1.83;0.93;;;9.00;99.90;;;;;;5058712;28;20530;-70
2023/01/05 09:49:44;;;;;;;1.80;0.90;;;9.00;99.90;;;;;;5058841;28;20454;-69
2023/01/05 09:52:12;;;;;;;2.67;0.97;;;9.00;99.90;;;;;;5058546;28;20479;-70
2023/01/05 09:54:40;;;;;;;4.53;0.80;;;9.10;99.90;;;;;;5057519;28;20946;-68
2023/01/05 09:57:15;;;;;;;1.93;0.80;;;9.10;99.90;;;;;;5057843;28;20459;-70
2023/01/05 09:59:45;;;;;;;1.77;0.90;;;9.20;99.90;;;;;;5058176;28;20473;-70
2023/01/05 10:02:20;;;;;;;1.97;1.20;;;9.20;99.90;;;;;;5058684;28;20939;-69
2023/01/05 10:04:49;;;;;;;5.53;1.00;;;9.30;99.90;;;;;;5058265;28;20475;-69
2023/01/05 10:07:24;;;;;;;2.40;1.50;;;9.30;99.90;;;;;;5057861;28;20473;-69
2023/01/05 10:09:52;;;;;;;2.93;0.90;;;9.30;99.90;;;;;;5070197;28;20940;-69
2023/01/05 10:15:12;;;;;;;4.37;1.30;;;9.30;99.90;;;;;;5080164;28;20496;-69
2023/01/05 10:17:40;;;;;;;1.90;0.80;;;9.40;99.90;;;;;;5080182;28;20439;-69
2023/01/05 10:20:17;;;;;;;1.70;0.87;;;9.40;99.90;;;;;;5079376;28;20460;-68
2023/01/05 10:22:56;;;;;;;3.60;2.13;;;9.40;99.90;;;;;;5078367;28;20568;-69
2023/01/05 10:25:31;;;;;;;2.90;1.10;;;9.40;99.90;;;;;;5078441;28;20446;-70
2023/01/05 10:28:08;;;;;;;4.40;1.00;;;9.40;99.90;;;;;;5078931;28;20434;-68
2023/01/05 10:30:47;;;;;;;4.67;1.03;;;9.50;99.90;;;;;;5078058;28;20461;-69
2023/01/05 10:33:20;;;;;;;5.33;1.53;;;9.50;99.90;;;;;;5069388;28;20912;-69
2023/01/05 10:36:00;;;;;;;2.10;0.90;;;9.50;99.90;;;;;;5057759;28;20490;-70
2023/01/05 10:38:41;;;;;;;1.50;0.90;;;9.60;99.90;;;;;;5058106;28;20443;-69
2023/01/05 10:41:20;;;;;;;2.83;1.03;;;9.50;99.90;;;;;;5058305;28;20494;-68
2023/01/05 10:44:28;;;;;;;3.80;1.27;;;9.60;99.90;;;;;;5058395;28;20529;-69
2023/01/05 10:46:55;;;;;;;3.57;1.00;;;9.60;99.90;;;;;;5058094;28;20931;-69
2023/01/05 10:49:26;;;;;;;2.47;0.97;;;9.70;99.90;;;;;;5057334;28;20650;-70
2023/01/05 10:51:55;;;;;;;4.40;1.10;;;9.70;99.90;;;;;;5059149;28;20842;-69
2023/01/05 10:54:35;;;;;;;1.97;0.97;;;9.70;99.90;;;;;;5058663;28;20523;-69
2023/01/05 10:57:36;;;;;;;2.53;0.80;;;9.80;99.90;;;;;;5058825;28;20441;-69
2023/01/05 11:00:10;;;;;;;1.83;0.87;;;9.80;99.90;;;;;;5057639;28;20469;-69
2023/01/05 11:02:39;;;;;;;3.07;0.80;;;9.80;99.90;;;;;;5057124;28;20870;-69
2023/01/05 11:05:26;;;;;;;3.00;1.53;;;9.80;99.90;;;;;;5059065;28;20463;-69
2023/01/05 11:07:57;;;;;;;4.23;0.80;;;9.90;99.90;;;;;;5059048;28;20475;-69
2023/01/05 11:10:29;;;;;;;2.30;0.80;;;9.80;99.90;;;;;;5058109;28;20458;-69
2023/01/05 11:13:04;;;;;;;2.80;1.10;;;9.80;99.90;;;;;;5058641;28;20447;-68
2023/01/05 11:15:34;;;;;;;3.40;1.27;;;9.70;99.90;;;;;;5058887;28;20534;-69
2023/01/05 11:18:02;;;;;;;9.83;1.33;;;9.70;99.90;;;;;;5057778;28;20591;-70
2023/01/05 11:20:29;;;;;;;8.43;1.40;;;9.70;99.90;;;;;;5058292;28;20920;-69
2023/01/05 11:22:58;;;;;;;6.97;0.90;;;9.70;99.90;;;;;;5057169;28;20487;-69
2023/01/05 11:25:28;;;;;;;2.97;1.20;;;9.70;99.90;;;;;;5057425;28;20531;-70
2023/01/05 11:28:14;;;;;;;3.10;1.50;;;9.70;99.90;;;;;;5057590;28;20439;-71
2023/01/05 11:30:56;;;;;;;7.37;1.20;;;9.70;99.90;;;;;;5057169;28;20855;-70
2023/01/05 11:33:25;;;;;;;5.23;1.20;;;9.70;99.90;;;;;;5057330;28;20511;-71
2023/01/05 11:35:52;;;;;;;3.17;1.73;;;9.60;99.90;;;;;;5055781;28;20465;-69
2023/01/05 11:38:24;;;;;;;4.73;1.10;;;9.70;99.90;;;;;;5054862;28;20462;-68
2023/01/05 11:40:52;;;;;;;6.07;1.40;;;9.70;99.90;;;;;;5054690;28;20440;-69
2023/01/05 11:43:21;;;;;;;5.33;0.97;;;9.70;99.90;;;;;;5054666;28;20451;-69
2023/01/05 11:45:51;;;;;;;4.37;2.07;;;9.80;99.90;;;;;;5054528;28;20467;-68
2023/01/05 11:48:21;;;;;;;5.30;1.27;;;9.90;99.90;;;;;;5054753;28;20448;-69
2023/01/05 11:50:50;;;;;;;3.43;1.00;;;9.90;99.90;;;;;;5054515;28;20459;-70
2023/01/05 11:53:35;;;;;;;5.10;1.10;;;10.00;99.90;;;;;;5054258;28;20491;-69
2023/01/05 11:56:03;;;;;;;2.67;1.13;;;10.00;99.90;;;;;;5054435;28;20528;-69
2023/01/05 11:58:34;;;;;;;3.20;1.33;;;10.10;99.90;;;;;;5054437;28;20454;-70
2023/01/05 12:01:34;;;;;;;2.60;1.20;;;10.00;99.90;;;;;;5053433;28;20950;-69
2023/01/05 12:04:05;;;;;;;4.83;1.13;;;10.00;99.90;;;;;;5054463;28;20721;-69
2023/01/05 12:07:05;;;;;;;4.17;1.20;;;10.10;99.90;;;;;;5054696;28;20538;-68
2023/01/05 12:09:35;;;;;;;4.23;1.10;;;10.30;99.90;;;;;;5054123;28;20974;-71
2023/01/05 12:12:36;;;;;;;7.30;1.30;;;10.40;99.90;;;;;;5054493;28;20786;-68
2023/01/05 12:15:30;;;;;;;3.13;1.23;;;10.40;99.90;;;;;;5022021;28;20480;-69
2023/01/05 12:18:06;;;;;;;3.10;1.10;;;10.40;99.90;;;;;;5054470;28;21020;-69
2023/01/05 12:20:54;;;;;;;3.60;1.07;;;10.30;99.90;;;;;;5054536;28;20449;-69
2023/01/05 12:23:41;;;;;;;6.53;1.00;;;10.40;99.90;;;;;;5054045;28;20490;-71
2023/01/05 12:26:19;;;;;;;3.97;1.13;;;10.30;99.90;;;;;;5054299;28;20449;-69
2023/01/05 12:29:23;;;;;;;3.77;0.93;;;10.30;99.90;;;;;;5054325;28;20439;-69
2023/01/05 12:32:06;;;;;;;5.80;1.23;;;10.50;99.90;;;;;;5054289;28;20493;-69
2023/01/05 12:35:18;;;;;;;8.40;1.30;;;10.70;99.90;;;;;;5054455;28;20451;-70
2023/01/05 12:38:01;;;;;;;4.10;1.53;;;10.70;99.90;;;;;;5054207;28;20467;-69
2023/01/05 12:40:48;;;;;;;2.73;1.00;;;11.10;99.90;;;;;;5054074;28;20447;-68
2023/01/05 12:43:30;;;;;;;3.20;1.10;;;11.50;99.90;;;;;;5053831;28;20531;-68
2023/01/05 12:46:13;;;;;;;3.03;0.90;;;12.00;99.90;;;;;;5053765;28;20455;-69
2023/01/05 12:48:43;;;;;;;2.37;1.07;;;12.20;99.90;;;;;;5054203;28;20729;-70
2023/01/05 12:51:16;;;;;;;5.37;1.10;;;12.00;99.90;;;;;;5054262;28;20451;-70
2023/01/05 12:53:51;;;;;;;2.97;1.30;;;12.30;99.90;;;;;;5054021;28;20462;-70
2023/01/05 12:56:25;;;;;;;4.60;1.20;;;12.40;99.90;;;;;;5054189;28;20530;-70
2023/01/05 12:59:12;;;;;;;4.23;1.33;;;12.50;99.90;;;;;;5053972;28;20442;-69
2023/01/05 13:01:45;;;;;;;3.97;1.50;;;12.50;99.90;;;;;;5053673;28;20478;-68
2023/01/05 13:04:35;;;;;;;2.63;0.90;;;12.00;99.90;;;;;;5053790;28;20471;-71
2023/01/05 13:07:08;;;;;;;1.83;0.80;;;11.70;99.90;;;;;;5053550;28;20546;-70
2023/01/05 13:09:37;;;;;;;7.60;1.10;;;11.60;99.90;;;;;;5054131;28;20432;-69
2023/01/05 13:12:07;;;;;;;6.10;1.47;;;11.00;99.90;;;;;;5054968;28;20577;-69
2023/01/05 13:14:39;;;;;;;2.67;0.93;;;10.80;99.90;;;;;;5058359;28;20821;-69
2023/01/05 13:17:12;;;;;;;3.07;1.13;;;11.00;99.90;;;;;;5056992;28;20493;-69
2023/01/05 13:19:45;;;;;;;1.40;1.00;;;11.10;99.90;;;;;;5057320;28;20538;-70
2023/01/05 13:22:21;;;;;;;4.10;0.90;;;11.20;99.90;;;;;;5057447;28;20826;-70
2023/01/05 13:24:52;;;;;;;2.30;1.00;;;11.10;99.90;;;;;;5056827;28;20467;-68
2023/01/05 13:27:19;;;;;;;2.40;1.20;;;10.90;99.90;;;;;;5057988;28;20525;-69
2023/01/05 13:29:53;;;;;;;5.00;1.70;;;10.80;99.90;;;;;;5057355;28;20490;-69
2023/01/05 13:32:33;;;;;;;3.73;0.90;;;10.70;99.90;;;;;;5057426;28;20463;-68
2023/01/05 13:35:37;;;;;;;4.90;1.20;;;10.70;99.90;;;;;;5057175;28;20439;-70
2023/01/05 13:38:33;;;;;;;1.93;0.97;;;10.50;99.90;;;;;;4996169;28;20548;-69
2023/01/05 13:41:22;;;;;;;1.90;1.10;;;10.40;99.90;;;;;;5057228;28;20481;-69
2023/01/05 13:44:21;;;;;;;1.70;0.97;;;10.20;99.90;;;;;;5056838;28;20458;-69
2023/01/05 13:47:09;;;;;;;3.03;0.93;;;9.90;99.90;;;;;;5056474;28;20538;-70
2023/01/05 13:50:04;;;;;;;3.63;0.90;;;9.60;99.90;;;;;;5058426;28;20454;-69
2023/01/05 13:52:45;;;;;;;2.73;1.00;;;9.60;99.90;;;;;;5076561;28;20539;-70